Time;durP1;ratioP1;P1;durP2;ratioP2;P2;SDS_P1;SDS_P2;PMS_P1;PMS_P2;Temp;Humidity;BMP_temperature;BMP_pressure;BME280_temperature;BME280_humidity;BME280_pressure;Samples;Min_cycle;Max_cycle;Signal;HPM_P1;HPM_P2
2022/03/03 00:00:15;;;;;;;21.27;13.30;;;6.60;74.90;;;;;;6105456;23;20009;-83
2022/03/03 00:02:42;;;;;;;20.55;11.98;;;6.60;74.70;;;;;;6129675;23;20497;-83
2022/03/03 00:05:08;;;;;;;19.85;12.68;;;6.60;75.30;;;;;;6155912;23;20097;-83
2022/03/03 00:07:34;;;;;;;22.35;13.73;;;6.60;75.10;;;;;;6129835;23;20014;-83
2022/03/03 00:10:00;;;;;;;22.50;13.23;;;6.50;76.30;;;;;;6155826;23;20006;-83
2022/03/03 00:12:26;;;;;;;20.20;12.98;;;6.50;77.00;;;;;;6105347;23;20005;-83
2022/03/03 00:14:52;;;;;;;21.90;13.68;;;6.50;77.40;;;;;;6105419;23;20013;-83
2022/03/03 00:17:17;;;;;;;22.30;14.52;;;6.40;77.60;;;;;;6105432;23;20016;-83
2022/03/03 00:19:43;;;;;;;20.98;13.90;;;6.40;77.60;;;;;;6105410;23;20006;-83
2022/03/03 00:22:09;;;;;;;20.98;13.73;;;6.30;78.20;;;;;;6105295;23;20009;-83
2022/03/03 00:24:35;;;;;;;23.30;13.30;;;6.30;78.10;;;;;;6129773;23;20038;-83
2022/03/03 00:27:01;;;;;;;21.85;14.57;;;6.30;78.40;;;;;;6130899;23;20001;-83
2022/03/03 00:29:26;;;;;;;20.85;13.40;;;6.30;78.00;;;;;;6131589;23;20009;-83
2022/03/03 00:31:52;;;;;;;21.65;13.60;;;6.30;78.30;;;;;;6131494;23;20001;-83
2022/03/03 00:34:18;;;;;;;21.92;14.02;;;6.30;78.90;;;;;;6107011;23;20429;-83
2022/03/03 00:36:43;;;;;;;22.38;13.20;;;6.20;79.00;;;;;;6131862;23;20013;-83
2022/03/03 00:39:09;;;;;;;21.02;13.82;;;6.20;79.80;;;;;;6157508;23;20013;-83
2022/03/03 00:41:35;;;;;;;21.83;14.25;;;6.20;79.20;;;;;;6131470;23;20041;-83
2022/03/03 00:44:01;;;;;;;23.60;14.18;;;6.20;78.40;;;;;;6157394;23;20001;-83
2022/03/03 00:46:27;;;;;;;22.45;13.80;;;6.10;79.30;;;;;;6131331;23;20066;-83
2022/03/03 00:48:57;;;;;;;22.98;14.05;;;6.10;79.50;;;;;;6131425;23;20377;-83
2022/03/03 00:51:22;;;;;;;21.60;14.10;;;6.00;79.30;;;;;;6157441;23;19997;-84
2022/03/03 00:53:50;;;;;;;30.38;15.40;;;6.00;79.90;;;;;;6106987;23;20036;-83
2022/03/03 00:56:16;;;;;;;24.70;14.70;;;6.00;80.40;;;;;;6131321;23;20044;-87
2022/03/03 00:58:41;;;;;;;23.15;15.18;;;5.90;81.30;;;;;;6107512;23;20028;-87
2022/03/03 01:01:07;;;;;;;22.52;13.88;;;5.90;81.10;;;;;;6131641;23;20425;-87
2022/03/03 01:03:33;;;;;;;23.20;14.70;;;5.90;81.40;;;;;;6107025;23;20087;-87
2022/03/03 01:05:59;;;;;;;23.15;13.82;;;5.90;81.80;;;;;;6107105;23;20448;-87
2022/03/03 01:08:24;;;;;;;22.60;13.82;;;5.80;82.10;;;;;;6131988;23;20080;-86
2022/03/03 01:10:50;;;;;;;26.23;15.25;;;5.80;81.70;;;;;;6106926;23;20072;-86
2022/03/03 01:13:16;;;;;;;23.80;15.07;;;5.80;81.60;;;;;;6107031;23;20052;-86
2022/03/03 01:15:42;;;;;;;20.95;14.15;;;5.80;81.80;;;;;;6131230;23;20017;-86
2022/03/03 01:18:08;;;;;;;21.60;14.18;;;5.70;82.40;;;;;;6131752;23;20088;-86
2022/03/03 01:20:34;;;;;;;22.23;13.75;;;5.70;82.70;;;;;;6131430;23;20361;-87
2022/03/03 01:22:59;;;;;;;24.05;14.45;;;5.70;83.10;;;;;;6131540;23;20325;-87
2022/03/03 01:25:25;;;;;;;22.08;14.00;;;5.60;82.70;;;;;;6131278;23;20010;-87
2022/03/03 01:27:51;;;;;;;24.05;14.27;;;5.60;83.50;;;;;;6157562;23;20002;-86
2022/03/03 01:30:16;;;;;;;22.30;13.27;;;5.60;83.90;;;;;;6131224;23;20290;-86
2022/03/03 01:32:42;;;;;;;23.02;13.70;;;5.60;83.60;;;;;;6106610;23;20010;-87
2022/03/03 01:35:08;;;;;;;25.55;13.82;;;5.50;84.10;;;;;;6157270;23;20006;-87
2022/03/03 01:37:34;;;;;;;21.58;14.13;;;5.50;83.80;;;;;;6106344;23;20100;-86
2022/03/03 01:40:00;;;;;;;28.98;14.43;;;5.50;84.30;;;;;;6131804;23;20005;-86
2022/03/03 01:42:25;;;;;;;28.55;15.85;;;5.50;84.10;;;;;;6131244;23;20012;-86
2022/03/03 01:44:51;;;;;;;22.83;14.32;;;5.40;83.90;;;;;;6131252;23;20461;-86
2022/03/03 01:47:22;;;;;;;22.20;13.25;;;5.40;84.20;;;;;;6106439;23;20025;-87
2022/03/03 01:49:49;;;;;;;23.17;14.75;;;5.40;84.40;;;;;;6131115;23;20005;-87
2022/03/03 01:52:16;;;;;;;22.30;14.27;;;5.40;84.40;;;;;;6106806;23;20045;-86
2022/03/03 01:54:42;;;;;;;22.20;14.43;;;5.30;84.30;;;;;;6106409;23;20009;-87
2022/03/03 01:57:08;;;;;;;23.52;14.50;;;5.30;85.00;;;;;;6130735;23;20005;-87
2022/03/03 01:59:34;;;;;;;24.30;15.07;;;5.30;85.10;;;;;;6131068;23;20112;-87
2022/03/03 02:02:00;;;;;;;23.63;13.00;;;5.20;85.80;;;;;;6156967;23;20001;-87
2022/03/03 02:04:26;;;;;;;22.02;14.10;;;5.20;86.10;;;;;;6131008;23;20005;-87
2022/03/03 02:06:51;;;;;;;23.35;15.07;;;5.20;86.00;;;;;;6156875;23;20024;-87
2022/03/03 02:09:18;;;;;;;26.10;15.07;;;5.20;86.30;;;;;;6106297;23;20020;-87
2022/03/03 02:11:46;;;;;;;24.73;14.18;;;5.20;86.70;;;;;;6106346;23;20009;-87
2022/03/03 02:14:13;;;;;;;24.63;13.95;;;5.10;86.90;;;;;;6130635;23;20064;-86
2022/03/03 02:16:39;;;;;;;25.17;15.65;;;5.10;86.10;;;;;;6131048;23;20077;-87
2022/03/03 02:19:05;;;;;;;22.58;14.40;;;5.10;86.30;;;;;;6130647;23;20068;-87
2022/03/03 02:21:31;;;;;;;22.85;13.90;;;5.10;86.20;;;;;;6131216;23;20005;-87
2022/03/03 02:23:57;;;;;;;24.52;14.93;;;5.00;85.20;;;;;;6130872;23;20006;-87
2022/03/03 02:26:23;;;;;;;24.13;14.52;;;5.00;86.30;;;;;;6156850;23;20001;-86
2022/03/03 02:28:53;;;;;;;23.55;14.73;;;5.00;87.20;;;;;;6106478;23;20377;-87
2022/03/03 02:31:19;;;;;;;25.88;15.20;;;4.90;87.40;;;;;;6106798;23;20080;-87
2022/03/03 02:33:45;;;;;;;28.05;14.98;;;4.90;88.00;;;;;;6106210;23;20001;-87
2022/03/03 02:36:22;;;;;;;23.85;13.98;;;4.90;88.70;;;;;;6130625;23;20033;-87
2022/03/03 02:38:50;;;;;;;23.52;15.02;;;4.90;89.00;;;;;;6130517;23;20513;-87
2022/03/03 02:41:15;;;;;;;24.30;14.88;;;4.80;89.00;;;;;;6106468;23;20441;-87
2022/03/03 02:43:42;;;;;;;25.15;15.60;;;4.80;88.50;;;;;;6106086;23;20113;-87
2022/03/03 02:46:09;;;;;;;24.27;15.00;;;4.80;88.70;;;;;;6130331;23;20013;-87
2022/03/03 02:48:34;;;;;;;25.17;15.32;;;4.80;89.10;;;;;;6130569;23;20026;-87
2022/03/03 02:51:00;;;;;;;29.85;15.95;;;4.70;88.80;;;;;;6130749;23;20006;-87
2022/03/03 02:53:26;;;;;;;23.73;15.18;;;4.70;88.10;;;;;;6106329;23;20100;-87
2022/03/03 02:55:52;;;;;;;25.10;16.13;;;4.60;88.10;;;;;;6106048;23;20005;-87
2022/03/03 02:58:17;;;;;;;32.05;17.02;;;4.60;89.40;;;;;;6105959;23;20096;-87
2022/03/03 03:00:44;;;;;;;27.17;16.55;;;4.60;90.20;;;;;;6105781;23;20044;-87
2022/03/03 03:03:10;;;;;;;29.33;16.15;;;4.60;90.20;;;;;;6106264;23;20006;-87
2022/03/03 03:05:36;;;;;;;27.27;15.68;;;4.50;90.10;;;;;;6130694;23;20414;-87
2022/03/03 03:08:02;;;;;;;26.70;15.82;;;4.50;89.40;;;;;;6130428;23;20009;-87
2022/03/03 03:10:28;;;;;;;24.75;15.13;;;4.50;90.10;;;;;;6130624;23;20017;-87
2022/03/03 03:12:54;;;;;;;25.88;15.32;;;4.50;90.10;;;;;;6130329;23;20009;-87
2022/03/03 03:15:20;;;;;;;26.73;15.93;;;4.40;90.40;;;;;;6130257;23;20052;-87
2022/03/03 03:17:45;;;;;;;25.73;15.70;;;4.40;90.20;;;;;;6106116;23;20346;-87
2022/03/03 03:20:12;;;;;;;26.70;16.63;;;4.40;90.60;;;;;;6130611;23;20008;-87
2022/03/03 03:22:38;;;;;;;27.50;16.40;;;4.40;90.30;;;;;;6130315;23;20031;-87
2022/03/03 03:25:07;;;;;;;24.52;16.05;;;4.30;90.70;;;;;;6156352;23;20002;-87
2022/03/03 03:27:33;;;;;;;26.00;16.33;;;4.30;91.20;;;;;;6106053;23;20045;-86
2022/03/03 03:29:59;;;;;;;24.17;15.73;;;4.30;91.40;;;;;;6130231;23;20001;-87
2022/03/03 03:32:25;;;;;;;26.10;15.18;;;4.30;91.20;;;;;;6105966;23;20096;-87
2022/03/03 03:34:51;;;;;;;28.17;17.50;;;4.30;91.30;;;;;;6105900;23;20048;-87
2022/03/03 03:37:17;;;;;;;28.13;16.45;;;4.30;91.60;;;;;;6130651;23;20006;-87
2022/03/03 03:39:43;;;;;;;25.55;16.10;;;4.20;91.20;;;;;;6130957;23;20080;-87
2022/03/03 03:42:09;;;;;;;26.92;16.67;;;4.20;91.20;;;;;;6129922;23;20013;-87
2022/03/03 03:44:35;;;;;;;23.67;15.30;;;4.20;91.00;;;;;;6156795;23;19997;-87
2022/03/03 03:47:01;;;;;;;23.80;15.35;;;4.20;91.20;;;;;;6124246;23;20021;-87
2022/03/03 03:49:27;;;;;;;23.88;14.98;;;4.10;91.40;;;;;;6099746;23;20308;-87
2022/03/03 03:51:53;;;;;;;25.00;15.35;;;4.10;91.70;;;;;;6099697;23;20010;-86
2022/03/03 03:54:19;;;;;;;26.08;16.10;;;4.10;91.90;;;;;;6124104;23;20030;-86
2022/03/03 03:56:44;;;;;;;30.30;16.58;;;4.10;91.90;;;;;;6125357;23;20012;-87
2022/03/03 03:59:10;;;;;;;25.23;15.65;;;4.10;91.90;;;;;;6124644;23;20522;-86
2022/03/03 04:01:36;;;;;;;30.13;16.75;;;4.00;91.70;;;;;;6124609;23;20374;-87
2022/03/03 04:04:02;;;;;;;26.30;15.55;;;4.00;92.10;;;;;;6101003;23;20434;-87
2022/03/03 04:06:27;;;;;;;23.90;15.18;;;4.00;92.40;;;;;;6126725;23;20002;-86
2022/03/03 04:08:53;;;;;;;25.83;15.68;;;4.00;92.40;;;;;;6100795;23;20069;-86
2022/03/03 04:11:19;;;;;;;26.45;17.50;;;3.90;92.40;;;;;;6100927;23;20422;-87
2022/03/03 04:13:44;;;;;;;29.92;15.73;;;3.90;92.70;;;;;;6100908;23;20480;-87
2022/03/03 04:16:10;;;;;;;27.38;16.17;;;3.90;92.90;;;;;;6126813;23;20002;-86
2022/03/03 04:18:36;;;;;;;25.65;15.35;;;3.80;93.20;;;;;;6125029;23;20036;-86
2022/03/03 04:21:01;;;;;;;24.58;15.77;;;3.80;93.30;;;;;;6125504;23;20386;-87
2022/03/03 04:23:27;;;;;;;24.90;14.43;;;3.80;93.30;;;;;;6100799;23;20457;-86
2022/03/03 04:25:53;;;;;;;26.38;15.35;;;3.80;93.50;;;;;;6125101;23;20449;-86
2022/03/03 04:28:18;;;;;;;27.90;16.55;;;3.80;93.20;;;;;;6100980;23;20006;-87
2022/03/03 04:30:44;;;;;;;24.02;14.57;;;3.80;93.30;;;;;;6126769;23;20012;-87
2022/03/03 04:33:29;;;;;;;24.95;15.85;;;3.70;93.00;;;;;;6100854;23;20014;-87
2022/03/03 04:35:56;;;;;;;23.52;14.95;;;3.70;92.80;;;;;;6124743;23;20022;-87
2022/03/03 04:38:22;;;;;;;25.45;14.73;;;3.60;92.90;;;;;;6100725;23;20006;-86
2022/03/03 04:40:48;;;;;;;26.98;16.23;;;3.60;92.90;;;;;;6100711;23;20064;-87
2022/03/03 04:43:13;;;;;;;26.17;16.15;;;3.60;93.00;;;;;;6125237;23;20448;-87
2022/03/03 04:45:39;;;;;;;22.77;14.67;;;3.60;93.10;;;;;;6077775;23;1200200;-87
2022/03/03 04:48:04;;;;;;;23.60;14.93;;;3.60;93.10;;;;;;6107355;23;20016;-87
2022/03/03 04:50:31;;;;;;;26.52;16.17;;;3.50;93.60;;;;;;6157649;23;20033;-87
2022/03/03 04:52:57;;;;;;;25.60;15.40;;;3.50;93.50;;;;;;6158246;23;20010;-87
2022/03/03 04:55:22;;;;;;;24.45;16.67;;;3.50;93.70;;;;;;6107421;23;20092;-86
2022/03/03 04:57:48;;;;;;;23.42;15.23;;;3.50;93.60;;;;;;6131587;23;20369;-86
2022/03/03 05:00:14;;;;;;;25.13;15.73;;;3.50;93.90;;;;;;6131534;23;20009;-86
2022/03/03 05:02:40;;;;;;;29.08;16.15;;;3.40;94.10;;;;;;6107049;23;20030;-87
2022/03/03 05:05:06;;;;;;;26.02;15.90;;;3.40;94.50;;;;;;6131266;23;20071;-87
2022/03/03 05:07:32;;;;;;;26.83;15.93;;;3.40;94.20;;;;;;6131168;23;20006;-87
2022/03/03 05:09:58;;;;;;;23.77;16.30;;;3.40;94.40;;;;;;6131456;23;20430;-86
2022/03/03 05:12:23;;;;;;;27.35;15.93;;;3.40;94.70;;;;;;6107174;23;20139;-87
2022/03/03 05:14:50;;;;;;;25.05;15.18;;;3.40;94.80;;;;;;6106719;23;20013;-87
2022/03/03 05:17:15;;;;;;;26.05;16.00;;;3.30;95.00;;;;;;6107019;23;20018;-87
2022/03/03 05:19:41;;;;;;;26.58;15.27;;;3.30;95.10;;;;;;6157525;23;20009;-87
2022/03/03 05:22:06;;;;;;;25.17;14.95;;;3.30;95.40;;;;;;6106834;23;20012;-86
2022/03/03 05:24:32;;;;;;;26.70;15.75;;;3.30;95.60;;;;;;6131420;23;20002;-87
2022/03/03 05:26:58;;;;;;;36.28;17.13;;;3.30;95.80;;;;;;6131210;23;20016;-86
2022/03/03 05:29:23;;;;;;;26.65;16.58;;;3.20;95.80;;;;;;6106832;23;20056;-87
2022/03/03 05:31:49;;;;;;;27.25;14.82;;;3.20;96.00;;;;;;6106736;23;20072;-86
2022/03/03 05:34:15;;;;;;;25.02;14.85;;;3.20;96.20;;;;;;6131641;23;20017;-87
2022/03/03 05:36:41;;;;;;;25.20;14.90;;;3.20;96.10;;;;;;6131739;23;20009;-87
2022/03/03 05:39:08;;;;;;;27.83;14.80;;;3.20;95.80;;;;;;6131552;23;20009;-87
2022/03/03 05:41:34;;;;;;;26.25;15.23;;;3.20;96.00;;;;;;6108981;23;20005;-86
2022/03/03 05:44:01;;;;;;;23.80;14.98;;;3.10;95.90;;;;;;6107766;23;20016;-87
2022/03/03 05:46:26;;;;;;;28.52;15.30;;;3.10;96.30;;;;;;6131242;23;20041;-87
2022/03/03 05:48:52;;;;;;;26.20;15.15;;;3.10;96.60;;;;;;6106796;23;20437;-87
2022/03/03 05:51:19;;;;;;;26.58;15.98;;;3.10;96.70;;;;;;6106970;23;20060;-87
2022/03/03 05:53:45;;;;;;;22.08;15.23;;;3.10;96.80;;;;;;6131320;23;20033;-87
2022/03/03 05:56:15;;;;;;;24.30;15.13;;;3.00;96.80;;;;;;6106917;23;20005;-86
2022/03/03 05:58:47;;;;;;;25.02;14.95;;;3.00;97.20;;;;;;6156818;23;20426;-87
2022/03/03 06:01:15;;;;;;;24.92;14.63;;;3.00;97.40;;;;;;6130807;23;19998;-87
2022/03/03 06:03:41;;;;;;;25.67;14.77;;;3.00;97.40;;;;;;6106843;23;20326;-86
2022/03/03 06:06:21;;;;;;;24.35;14.68;;;3.00;97.60;;;;;;6106473;23;20089;-87
2022/03/03 06:09:01;;;;;;;28.00;16.20;;;2.90;97.70;;;;;;6130703;23;20006;-87
2022/03/03 06:11:27;;;;;;;26.85;15.40;;;2.90;98.00;;;;;;6132052;23;20024;-86
2022/03/03 06:14:04;;;;;;;24.65;15.35;;;2.90;98.20;;;;;;6131763;23;20465;-86
2022/03/03 06:16:30;;;;;;;29.33;14.18;;;2.90;98.40;;;;;;6130645;23;20088;-86
2022/03/03 06:18:58;;;;;;;24.98;14.82;;;2.80;98.50;;;;;;6130573;23;20005;-88
2022/03/03 06:21:24;;;;;;;25.60;15.23;;;2.80;98.70;;;;;;6132558;23;20001;-87
2022/03/03 06:23:56;;;;;;;29.08;15.32;;;2.80;98.70;;;;;;6140388;23;20001;-86
2022/03/03 06:26:22;;;;;;;26.42;15.27;;;2.80;98.80;;;;;;6107476;23;20513;-87
2022/03/03 06:28:48;;;;;;;25.88;15.68;;;2.80;99.00;;;;;;6131240;23;20005;-87
2022/03/03 06:31:14;;;;;;;27.75;14.65;;;2.80;99.10;;;;;;6130969;23;20002;-87
2022/03/03 06:33:40;;;;;;;26.13;15.45;;;2.70;99.20;;;;;;6131091;23;20013;-87
2022/03/03 06:36:07;;;;;;;25.98;16.08;;;2.70;99.30;;;;;;6130623;23;20041;-87
2022/03/03 06:38:34;;;;;;;23.45;14.70;;;2.70;99.70;;;;;;6106384;23;20365;-87
2022/03/03 06:41:02;;;;;;;26.08;15.20;;;2.70;99.60;;;;;;6106048;23;20029;-87
2022/03/03 06:43:29;;;;;;;24.42;15.60;;;2.70;99.90;;;;;;6107401;23;20319;-86
2022/03/03 06:45:56;;;;;;;25.65;14.77;;;2.70;99.80;;;;;;6130579;23;20449;-87
2022/03/03 06:48:22;;;;;;;25.17;15.15;;;2.70;99.60;;;;;;6130776;23;20437;-86
2022/03/03 06:50:53;;;;;;;28.13;15.30;;;2.70;99.70;;;;;;6131383;23;20056;-87
2022/03/03 06:53:30;;;;;;;29.08;16.25;;;2.70;99.60;;;;;;6131929;23;20002;-87
2022/03/03 06:56:04;;;;;;;24.10;15.07;;;2.70;99.40;;;;;;6130914;23;20136;-87
2022/03/03 06:58:31;;;;;;;25.55;15.35;;;2.70;99.90;;;;;;6157016;23;20422;-86
2022/03/03 07:00:58;;;;;;;24.58;14.80;;;2.70;99.90;;;;;;6130859;23;20012;-87
2022/03/03 07:03:25;;;;;;;25.65;14.85;;;2.70;99.90;;;;;;6130711;23;19997;-88
2022/03/03 07:05:51;;;;;;;23.63;15.43;;;2.70;99.90;;;;;;6157471;23;20062;-87
2022/03/03 07:08:21;;;;;;;26.42;16.38;;;2.70;99.90;;;;;;6107144;23;20009;-87
2022/03/03 07:10:48;;;;;;;31.13;16.60;;;2.70;99.90;;;;;;6131046;23;20017;-87
2022/03/03 07:13:18;;;;;;;25.88;15.60;;;2.70;99.90;;;;;;6156632;23;20006;-87
2022/03/03 07:15:58;;;;;;;30.88;16.73;;;2.70;99.90;;;;;;6128759;23;20009;-87
2022/03/03 07:18:38;;;;;;;27.20;15.63;;;2.80;99.90;;;;;;6155331;23;20001;-87
2022/03/03 07:21:45;;;;;;;27.70;16.08;;;2.70;99.90;;;;;;6127329;23;20006;-87
2022/03/03 07:24:44;;;;;;;27.05;15.02;;;2.70;99.90;;;;;;6120104;23;20072;-87
2022/03/03 07:27:18;;;;;;;30.65;16.55;;;2.80;99.90;;;;;;6127615;23;20489;-87
2022/03/03 07:30:04;;;;;;;26.58;16.15;;;2.80;99.90;;;;;;6128107;23;20017;-87
2022/03/03 07:32:33;;;;;;;30.08;15.85;;;2.80;99.90;;;;;;6129993;23;20016;-87
2022/03/03 07:35:02;;;;;;;27.70;16.67;;;2.80;99.90;;;;;;6130374;23;20040;-87
2022/03/03 07:37:36;;;;;;;30.75;17.15;;;2.90;99.90;;;;;;6130175;23;20587;-87
2022/03/03 07:40:09;;;;;;;28.30;17.10;;;2.90;99.90;;;;;;6130278;23;20025;-87
2022/03/03 07:42:36;;;;;;;26.25;16.40;;;2.90;99.90;;;;;;6106664;23;20072;-87
2022/03/03 07:45:04;;;;;;;28.20;16.77;;;2.90;99.90;;;;;;6129500;23;20052;-87
2022/03/03 07:47:30;;;;;;;26.52;15.93;;;3.00;99.90;;;;;;6125954;23;20014;-87
2022/03/03 07:49:56;;;;;;;24.45;16.00;;;3.00;99.90;;;;;;6127095;23;20033;-87
2022/03/03 07:52:23;;;;;;;26.40;15.50;;;3.10;99.90;;;;;;6124769;23;20006;-87
2022/03/03 07:54:49;;;;;;;25.95;15.48;;;3.10;99.90;;;;;;6125035;23;20021;-87
2022/03/03 07:57:16;;;;;;;24.88;16.20;;;3.20;99.90;;;;;;6100723;23;20017;-87
2022/03/03 07:59:48;;;;;;;25.17;16.20;;;3.20;99.90;;;;;;6124659;23;20287;-87
2022/03/03 08:02:22;;;;;;;24.50;15.02;;;3.30;99.90;;;;;;6125323;23;20425;-87
2022/03/03 08:04:50;;;;;;;23.98;14.82;;;3.30;99.90;;;;;;6128564;23;20032;-87
2022/03/03 08:07:17;;;;;;;23.92;14.18;;;3.40;99.90;;;;;;6103205;23;20066;-87
2022/03/03 08:09:48;;;;;;;24.50;14.75;;;3.40;99.90;;;;;;6128452;23;20006;-86
2022/03/03 08:12:15;;;;;;;20.65;13.32;;;3.40;99.90;;;;;;6126952;23;20514;-87
2022/03/03 08:14:41;;;;;;;23.60;13.80;;;3.50;99.90;;;;;;6103186;23;20427;-87
2022/03/03 08:17:08;;;;;;;25.35;14.77;;;3.50;99.90;;;;;;6102600;23;20006;-88
2022/03/03 08:19:36;;;;;;;24.50;14.68;;;3.60;99.90;;;;;;6127151;23;20096;-86
2022/03/03 08:22:01;;;;;;;23.83;14.90;;;3.70;99.90;;;;;;6126845;23;20101;-85
2022/03/03 08:24:27;;;;;;;26.63;16.02;;;3.70;99.90;;;;;;6102472;23;20013;-86
2022/03/03 08:26:55;;;;;;;22.52;13.93;;;3.80;99.90;;;;;;6102849;23;20006;-86
2022/03/03 08:29:21;;;;;;;25.10;16.40;;;3.80;99.90;;;;;;6126695;23;20369;-86
2022/03/03 08:31:53;;;;;;;24.92;14.43;;;3.90;99.90;;;;;;6128707;23;20010;-85
2022/03/03 08:34:37;;;;;;;22.55;14.20;;;4.00;99.90;;;;;;6102987;23;20370;-85
2022/03/03 08:37:07;;;;;;;22.20;13.07;;;4.00;99.90;;;;;;6127804;23;20106;-85
2022/03/03 08:39:38;;;;;;;23.63;14.65;;;4.10;99.90;;;;;;6128534;23;20477;-86
2022/03/03 08:42:08;;;;;;;26.60;14.13;;;4.20;99.90;;;;;;6126524;23;20002;-85
2022/03/03 08:44:36;;;;;;;23.58;14.13;;;4.20;99.70;;;;;;6128156;23;20002;-86
2022/03/03 08:47:03;;;;;;;21.63;13.98;;;4.30;99.60;;;;;;6101682;23;20022;-86
2022/03/03 08:49:36;;;;;;;24.40;14.23;;;4.30;99.00;;;;;;6126359;23;20016;-86
2022/03/03 08:52:03;;;;;;;19.85;13.05;;;4.30;98.60;;;;;;6127817;23;20006;-85
2022/03/03 08:54:29;;;;;;;24.63;13.68;;;4.40;98.30;;;;;;6126493;23;20505;-85
2022/03/03 08:56:55;;;;;;;24.65;14.05;;;4.40;98.50;;;;;;6127667;23;20092;-86
2022/03/03 08:59:21;;;;;;;20.02;13.30;;;4.50;98.40;;;;;;6101687;23;20006;-86
2022/03/03 09:01:48;;;;;;;19.55;13.18;;;4.60;98.60;;;;;;6101898;23;20013;-86
2022/03/03 09:04:13;;;;;;;23.45;14.07;;;4.60;98.60;;;;;;6102220;23;20088;-86
2022/03/03 09:06:39;;;;;;;23.10;13.93;;;4.70;98.40;;;;;;6126627;23;20030;-86
2022/03/03 09:09:05;;;;;;;23.45;13.95;;;4.80;98.50;;;;;;6102043;23;20069;-86
2022/03/03 09:11:30;;;;;;;20.70;13.55;;;4.80;98.40;;;;;;6127957;23;20081;-86
2022/03/03 09:13:56;;;;;;;25.33;15.80;;;4.90;98.10;;;;;;6126437;23;20002;-86
2022/03/03 09:16:22;;;;;;;21.63;14.35;;;4.90;98.10;;;;;;6101577;23;20006;-86
2022/03/03 09:18:48;;;;;;;23.63;13.35;;;5.00;98.10;;;;;;6126428;23;20002;-86
2022/03/03 09:21:15;;;;;;;21.60;13.65;;;5.10;98.40;;;;;;6128017;23;20076;-86
2022/03/03 09:23:42;;;;;;;21.52;13.30;;;5.20;98.40;;;;;;6128078;23;20002;-86
2022/03/03 09:26:07;;;;;;;21.48;13.68;;;5.30;98.20;;;;;;6127495;23;20002;-86
2022/03/03 09:28:33;;;;;;;22.95;13.77;;;5.30;98.00;;;;;;6102037;23;20010;-86
2022/03/03 09:30:59;;;;;;;23.23;13.00;;;5.40;97.70;;;;;;6126155;23;20029;-85
2022/03/03 09:33:25;;;;;;;19.95;13.18;;;5.50;98.10;;;;;;6102068;23;20013;-87
2022/03/03 09:35:51;;;;;;;20.75;13.80;;;5.60;98.10;;;;;;6126181;23;20025;-86
2022/03/03 09:38:17;;;;;;;21.92;12.82;;;5.70;97.90;;;;;;6126134;23;20033;-85
2022/03/03 09:40:43;;;;;;;19.67;13.02;;;5.80;98.00;;;;;;6125909;23;20431;-85
2022/03/03 09:43:09;;;;;;;27.88;13.40;;;5.90;98.10;;;;;;6101165;23;20010;-86
2022/03/03 09:45:36;;;;;;;21.23;13.52;;;6.00;98.10;;;;;;6104209;23;20072;-85
2022/03/03 09:48:05;;;;;;;21.08;13.18;;;6.10;97.60;;;;;;6106371;23;20334;-85
2022/03/03 09:50:31;;;;;;;21.90;13.45;;;6.20;97.40;;;;;;6130558;23;20454;-85
2022/03/03 09:52:58;;;;;;;20.25;13.63;;;6.30;97.10;;;;;;6126690;23;20060;-85
2022/03/03 09:55:24;;;;;;;19.67;13.57;;;6.40;97.00;;;;;;6130478;23;20016;-86
2022/03/03 09:57:51;;;;;;;17.75;11.88;;;6.50;97.10;;;;;;6105872;23;20449;-86
2022/03/03 10:00:18;;;;;;;18.90;12.77;;;6.70;97.50;;;;;;6105911;23;20014;-86
2022/03/03 10:03:00;;;;;;;17.63;12.35;;;6.80;97.80;;;;;;6131232;23;20006;-86
2022/03/03 10:05:35;;;;;;;22.27;12.65;;;6.90;97.50;;;;;;6130286;23;20001;-86
2022/03/03 10:08:03;;;;;;;20.70;12.13;;;7.10;96.20;;;;;;6156075;23;20005;-86
2022/03/03 10:10:29;;;;;;;19.10;13.25;;;7.20;95.90;;;;;;6131282;23;20017;-86
2022/03/03 10:12:57;;;;;;;20.10;12.35;;;7.30;95.10;;;;;;6106301;23;20017;-86
2022/03/03 10:15:30;;;;;;;17.30;12.65;;;7.40;94.50;;;;;;6130608;23;20020;-86
2022/03/03 10:18:09;;;;;;;19.17;12.70;;;7.50;93.90;;;;;;6156750;23;20016;-86
2022/03/03 10:20:55;;;;;;;18.77;12.70;;;7.60;93.90;;;;;;6156640;23;20025;-86
2022/03/03 10:23:27;;;;;;;21.13;12.20;;;7.80;93.80;;;;;;6154957;23;20012;-86
2022/03/03 10:25:55;;;;;;;16.90;12.07;;;7.90;93.50;;;;;;6156920;23;20021;-86
2022/03/03 10:28:26;;;;;;;16.50;11.80;;;8.00;93.60;;;;;;6130409;23;20005;-86
2022/03/03 10:30:54;;;;;;;;;;;8.10;93.70;;;;;;6107000;23;20411;-86
2022/03/03 10:33:22;;;;;;;18.42;11.70;;;8.20;93.40;;;;;;6130367;23;19923;-86
2022/03/03 10:36:12;;;;;;;18.20;11.95;;;8.40;93.40;;;;;;6130514;23;20032;-86
2022/03/03 10:38:51;;;;;;;18.45;12.35;;;8.50;93.50;;;;;;6156326;23;20492;-85
2022/03/03 10:41:40;;;;;;;18.58;11.50;;;8.70;92.80;;;;;;6156698;23;20008;-86
2022/03/03 10:44:21;;;;;;;16.92;11.77;;;8.80;92.40;;;;;;6130646;23;20015;-86
2022/03/03 10:47:07;;;;;;;18.90;12.80;;;8.90;92.10;;;;;;6130323;23;20409;-86
2022/03/03 10:49:42;;;;;;;16.70;11.55;;;9.10;92.30;;;;;;6130411;23;20002;-86
2022/03/03 10:52:17;;;;;;;20.58;12.68;;;9.30;92.00;;;;;;6128540;23;20117;-85
2022/03/03 10:55:03;;;;;;;18.70;11.45;;;9.40;90.60;;;;;;6156548;23;20024;-86
2022/03/03 10:57:59;;;;;;;16.60;11.52;;;9.50;89.90;;;;;;6130093;23;20001;-86
2022/03/03 11:00:30;;;;;;;16.23;11.05;;;9.70;87.30;;;;;;6125438;23;20010;-83
2022/03/03 11:02:57;;;;;;;14.60;10.88;;;9.80;86.20;;;;;;6126367;23;20007;-82
2022/03/03 11:05:25;;;;;;;16.92;11.07;;;9.90;86.80;;;;;;6102174;23;20460;-83
2022/03/03 11:07:56;;;;;;;16.02;10.88;;;10.10;87.20;;;;;;6125851;23;20010;-83
2022/03/03 11:10:29;;;;;;;15.88;11.07;;;10.20;87.20;;;;;;6102426;23;20042;-82
2022/03/03 11:12:55;;;;;;;17.00;11.13;;;10.40;87.10;;;;;;6126110;23;20060;-83
2022/03/03 11:15:24;;;;;;;17.33;11.25;;;10.50;87.30;;;;;;6101687;23;20010;-83
2022/03/03 11:17:52;;;;;;;17.23;10.13;;;10.60;86.10;;;;;;6125736;23;20110;-82
2022/03/03 11:20:19;;;;;;;15.65;11.40;;;10.70;83.10;;;;;;6101956;23;20009;-82
2022/03/03 11:22:46;;;;;;;16.92;10.32;;;10.90;81.70;;;;;;6101799;23;20007;-83
2022/03/03 11:25:18;;;;;;;15.30;9.85;;;11.00;80.10;;;;;;6124348;23;19998;-84
2022/03/03 11:27:47;;;;;;;15.10;10.05;;;11.10;78.30;;;;;;6126125;23;20008;-82
2022/03/03 11:30:30;;;;;;;14.10;9.52;;;11.20;77.30;;;;;;6124420;23;20461;-83
2022/03/03 11:33:43;;;;;;;12.60;8.93;;;11.40;74.60;;;;;;6124867;23;20005;-83
2022/03/03 11:36:08;;;;;;;13.05;9.55;;;11.50;75.40;;;;;;6122761;23;20014;-83
2022/03/03 11:38:54;;;;;;;15.48;10.00;;;11.70;74.70;;;;;;6123009;23;20010;-83
2022/03/03 11:41:25;;;;;;;17.08;10.88;;;11.80;72.80;;;;;;6124921;23;20002;-83
2022/03/03 11:44:02;;;;;;;13.95;9.63;;;11.90;70.90;;;;;;6101561;23;20084;-84
2022/03/03 11:46:49;;;;;;;12.85;9.85;;;12.00;70.00;;;;;;6124851;23;20337;-83
2022/03/03 11:49:22;;;;;;;16.08;9.82;;;12.10;70.70;;;;;;6124981;23;20006;-83
2022/03/03 11:51:49;;;;;;;15.20;9.02;;;12.10;68.60;;;;;;6124899;23;20002;-83
2022/03/03 11:54:23;;;;;;;11.75;9.25;;;12.30;67.80;;;;;;6125619;23;20002;-82
2022/03/03 11:57:04;;;;;;;13.25;9.40;;;12.30;67.50;;;;;;6124915;23;20330;-83
2022/03/03 11:59:45;;;;;;;12.68;9.20;;;12.40;67.20;;;;;;6126419;23;20001;-83
2022/03/03 12:02:15;;;;;;;12.98;9.30;;;12.50;64.50;;;;;;6124345;23;20014;-82
2022/03/03 12:04:42;;;;;;;12.82;9.38;;;12.60;62.20;;;;;;6125804;23;20002;-82
2022/03/03 12:07:29;;;;;;;13.15;8.85;;;12.60;62.20;;;;;;6122464;23;20005;-81
2022/03/03 12:09:59;;;;;;;13.00;9.27;;;12.70;61.70;;;;;;6100241;23;20045;-82
2022/03/03 12:12:29;;;;;;;13.48;9.30;;;12.80;60.80;;;;;;6126172;23;20009;-81
2022/03/03 12:15:01;;;;;;;12.88;9.38;;;12.80;59.00;;;;;;6126409;23;20002;-81
2022/03/03 12:17:38;;;;;;;13.48;9.45;;;12.90;58.00;;;;;;6126944;23;20006;-82
2022/03/03 12:20:27;;;;;;;11.85;8.95;;;13.00;59.80;;;;;;6124463;23;20077;-81
2022/03/03 12:23:12;;;;;;;14.00;9.35;;;13.20;60.10;;;;;;6127706;23;20072;-83
2022/03/03 12:25:58;;;;;;;12.75;8.95;;;13.30;58.50;;;;;;6126739;23;20013;-83
2022/03/03 12:28:45;;;;;;;11.70;9.02;;;13.40;57.80;;;;;;6128190;23;20009;-83
2022/03/03 12:31:39;;;;;;;12.85;8.77;;;13.40;56.80;;;;;;6126671;23;20013;-83
2022/03/03 12:34:06;;;;;;;13.50;8.43;;;13.50;56.30;;;;;;6128177;23;20009;-83
2022/03/03 12:36:44;;;;;;;12.25;8.60;;;13.50;54.80;;;;;;6102225;23;20009;-82
2022/03/03 12:39:10;;;;;;;14.27;8.35;;;13.60;55.60;;;;;;6128242;23;20449;-83
2022/03/03 12:41:36;;;;;;;10.98;8.65;;;13.60;53.60;;;;;;6126675;23;20418;-83
2022/03/03 12:44:09;;;;;;;11.65;8.27;;;13.70;53.50;;;;;;6102281;23;20097;-84